createdAt,value
2017-06-01T00:02:26.333Z,101710
2017-06-01T00:04:55.677Z,101701
2017-06-01T00:07:25.203Z,101711
2017-06-01T00:09:54.422Z,101715
2017-06-01T00:12:23.797Z,101712
2017-06-01T00:14:53.323Z,101704
2017-06-01T00:17:22.625Z,101712
2017-06-01T00:19:51.927Z,101708
2017-06-01T00:22:21.214Z,101712
2017-06-01T00:24:50.542Z,101717
2017-06-01T00:27:19.839Z,101716
2017-06-01T00:29:49.106Z,101722
2017-06-01T00:32:18.424Z,101721
2017-06-01T00:34:47.773Z,101721
2017-06-01T00:37:17.162Z,101719
2017-06-01T00:39:46.774Z,101725
2017-06-01T00:42:16.097Z,101723
2017-06-01T00:44:45.599Z,101715
2017-06-01T00:47:14.893Z,101708
2017-06-01T00:49:44.137Z,101721
2017-06-01T00:52:13.381Z,101721
2017-06-01T00:54:42.626Z,101721
2017-06-01T00:57:11.897Z,101717
2017-06-01T00:59:41.161Z,101709
2017-06-01T01:02:10.462Z,101719
2017-06-01T01:04:40.378Z,101710
2017-06-01T01:07:09.901Z,101707
2017-06-01T01:09:39.113Z,101706
2017-06-01T01:12:08.519Z,101709
2017-06-01T01:14:37.709Z,101701
2017-06-01T01:17:06.933Z,101697
2017-06-01T01:19:36.618Z,101694
2017-06-01T01:22:05.867Z,101687
2017-06-01T01:24:35.129Z,101674
2017-06-01T01:27:04.893Z,101678
2017-06-01T01:29:34.311Z,101680
2017-06-01T01:32:03.667Z,101677
2017-06-01T01:34:33.465Z,101679
2017-06-01T01:37:02.805Z,101673
2017-06-01T01:39:32.162Z,101675
2017-06-01T01:42:01.489Z,101675
2017-06-01T01:44:30.846Z,101670
2017-06-01T01:47:00.741Z,101675
2017-06-01T01:49:30.449Z,101595
2017-06-01T01:51:59.949Z,101665
2017-06-01T01:54:29.327Z,101672
2017-06-01T01:56:58.615Z,101671
2017-06-01T01:59:28.294Z,101679
2017-06-01T02:01:57.637Z,101688
2017-06-01T02:04:26.938Z,101683
2017-06-01T02:06:57.050Z,101677
2017-06-01T02:09:26.505Z,101674
2017-06-01T02:11:55.877Z,101679
2017-06-01T02:14:25.217Z,101671
2017-06-01T02:16:54.505Z,101669
2017-06-01T02:19:23.836Z,101665
2017-06-01T02:21:53.153Z,101669
2017-06-01T02:24:22.451Z,101676
2017-06-01T02:26:51.824Z,101669
2017-06-01T02:29:21.598Z,101677
2017-06-01T02:31:50.994Z,101671
2017-06-01T02:34:20.539Z,101669
2017-06-01T02:36:49.913Z,101670
2017-06-01T02:39:19.362Z,101679
2017-06-01T02:41:48.680Z,101679
2017-06-01T02:44:19.203Z,101676
2017-06-01T02:46:48.508Z,101676
2017-06-01T02:49:18.418Z,101684
2017-06-01T02:51:50.383Z,101683
2017-06-01T02:54:20.066Z,101685
2017-06-01T02:56:49.601Z,101686
2017-06-01T02:59:18.977Z,101695
2017-06-01T03:01:48.361Z,101685
2017-06-01T03:04:17.638Z,101683
2017-06-01T03:06:46.962Z,101692
2017-06-01T03:09:16.515Z,101689
2017-06-01T03:11:45.900Z,101679
2017-06-01T03:14:15.236Z,101691
2017-06-01T03:16:45.232Z,101694
2017-06-01T03:19:14.951Z,101685
2017-06-01T03:21:44.359Z,101701
2017-06-01T03:24:13.685Z,101701
2017-06-01T03:26:43.033Z,101699
2017-06-01T03:29:12.405Z,101710
2017-06-01T03:31:41.774Z,101705
2017-06-01T03:34:11.222Z,101697
2017-06-01T03:36:40.600Z,101707
2017-06-01T03:39:10.168Z,101707
2017-06-01T03:41:40.291Z,101698
2017-06-01T03:44:09.842Z,101698
2017-06-01T03:46:39.222Z,101703
2017-06-01T03:49:08.801Z,101713
2017-06-01T03:51:38.364Z,101696
2017-06-01T03:54:08.013Z,101697
2017-06-01T03:56:37.732Z,101695
2017-06-01T03:59:07.678Z,101701
2017-06-01T04:01:37.159Z,101710
2017-06-01T04:04:06.473Z,101711
2017-06-01T04:06:35.825Z,101720
2017-06-01T04:09:05.385Z,101721
2017-06-01T04:11:34.789Z,101726
2017-06-01T04:14:04.261Z,101734
2017-06-01T04:16:34.109Z,101726
2017-06-01T04:19:03.418Z,101725
2017-06-01T04:21:33.015Z,101729
2017-06-01T04:24:02.525Z,101736
2017-06-01T04:26:31.883Z,101740
2017-06-01T04:29:01.116Z,101730
2017-06-01T04:31:30.409Z,101741
2017-06-01T04:33:59.973Z,101738
2017-06-01T04:36:29.237Z,101744
2017-06-01T04:38:59.213Z,101741
2017-06-01T04:41:28.502Z,101761
2017-06-01T04:43:57.713Z,101745
2017-06-01T04:46:27.125Z,101756
2017-06-01T04:48:56.321Z,101758
2017-06-01T04:51:25.649Z,101742
2017-06-01T04:53:55.536Z,101735
2017-06-01T04:56:24.815Z,101747
2017-06-01T04:58:54.010Z,101759
2017-06-01T05:01:23.220Z,101762
2017-06-01T05:03:52.431Z,101763
2017-06-01T05:09:00.973Z,101772
2017-06-01T05:11:30.178Z,101782
2017-06-01T05:13:59.473Z,101775
2017-06-01T05:16:29.528Z,101777
2017-06-01T05:18:59.273Z,101788
2017-06-01T05:21:28.739Z,101787
2017-06-01T05:23:57.986Z,101790
2017-06-01T05:26:27.164Z,101785
2017-06-01T05:28:56.753Z,101786
2017-06-01T05:31:25.989Z,101792
2017-06-01T05:33:55.621Z,101798
2017-06-01T05:36:24.862Z,101792
2017-06-01T05:38:54.109Z,101798
2017-06-01T05:41:23.450Z,101791
2017-06-01T05:43:53.606Z,101794
2017-06-01T05:46:23.227Z,101788
2017-06-01T05:48:53.181Z,101785
2017-06-01T05:51:22.421Z,101801
2017-06-01T05:53:51.897Z,101793
2017-06-01T05:56:21.250Z,101787
2017-06-01T05:58:50.718Z,101788
2017-06-01T06:01:19.911Z,101792
2017-06-01T06:03:49.725Z,101790
2017-06-01T06:06:18.965Z,101794
2017-06-01T06:08:48.306Z,101808
2017-06-01T06:11:17.557Z,101805
2017-06-01T06:13:46.773Z,101798
2017-06-01T06:16:16.429Z,101804
2017-06-01T06:18:45.765Z,101807
2017-06-01T06:21:14.985Z,101805
2017-06-01T06:23:44.189Z,101798
2017-06-01T06:26:13.849Z,101796
2017-06-01T06:28:43.052Z,101803
2017-06-01T06:31:12.326Z,101801
2017-06-01T06:33:41.746Z,101803
2017-06-01T06:36:11.148Z,101802
2017-06-01T06:38:40.365Z,101796
2017-06-01T06:41:09.613Z,101806
2017-06-01T06:43:39.245Z,101805
2017-06-01T06:46:08.431Z,101807
2017-06-01T06:48:37.645Z,101812
2017-06-01T06:51:07.497Z,101807
2017-06-01T06:53:37.245Z,101811
2017-06-01T06:56:06.454Z,101801
2017-06-01T06:58:35.870Z,101806
2017-06-01T07:01:05.159Z,101811
2017-06-01T07:03:34.485Z,101819
2017-06-01T07:06:03.707Z,101810
2017-06-01T07:08:33.204Z,101652
2017-06-01T07:11:02.382Z,101811
2017-06-01T07:13:32.013Z,101807
2017-06-01T07:16:01.323Z,101809
2017-06-01T07:18:30.624Z,101820
2017-06-01T07:20:59.906Z,101820
2017-06-01T07:23:29.118Z,101830
2017-06-01T07:25:58.668Z,101843
2017-06-01T07:28:27.877Z,101835
2017-06-01T07:30:57.243Z,101837
2017-06-01T07:33:26.515Z,101845
2017-06-01T07:35:55.727Z,101830
2017-06-01T07:38:25.745Z,101833
2017-06-01T07:40:55.245Z,101845
2017-06-01T07:43:24.536Z,101843
2017-06-01T07:45:53.939Z,101844
2017-06-01T07:48:23.170Z,101843
2017-06-01T07:50:52.399Z,101847
2017-06-01T07:53:21.757Z,101848
2017-06-01T07:55:52.511Z,101845
2017-06-01T07:58:22.729Z,101847
2017-06-01T08:00:52.232Z,101839
2017-06-01T08:03:21.459Z,101850
2017-06-01T08:05:50.657Z,101850
2017-06-01T08:08:20.043Z,101857
2017-06-01T08:10:49.526Z,101860
2017-06-01T08:13:18.812Z,101870
2017-06-01T08:15:48.015Z,101858
2017-06-01T08:18:17.235Z,101865
2017-06-01T08:20:46.589Z,101862
2017-06-01T08:23:16.175Z,101862
2017-06-01T08:25:45.512Z,101876
2017-06-01T08:28:14.721Z,101874
2017-06-01T08:30:43.925Z,101870
2017-06-01T08:33:13.367Z,101860
2017-06-01T08:35:42.668Z,101860
2017-06-01T08:38:12.174Z,101863
2017-06-01T08:40:41.883Z,101857
2017-06-01T08:43:11.122Z,101857
2017-06-01T08:45:40.689Z,101865
2017-06-01T08:48:09.913Z,101873
2017-06-01T08:50:39.130Z,101877
2017-06-01T08:53:08.438Z,101862
2017-06-01T08:55:37.900Z,101860
2017-06-01T08:58:07.132Z,101864
2017-06-01T09:00:37.321Z,101874
2017-06-01T09:03:07.218Z,101870
2017-06-01T09:05:36.450Z,101864
2017-06-01T09:08:06.045Z,101875
2017-06-01T09:10:35.548Z,101869
2017-06-01T09:13:05.744Z,101869
2017-06-01T09:15:35.163Z,101880
2017-06-01T09:18:06.215Z,101875
2017-06-01T09:20:35.454Z,101876
2017-06-01T09:23:05.253Z,101872
2017-06-01T09:25:34.837Z,101858
2017-06-01T09:28:05.545Z,101883
2017-06-01T09:30:34.855Z,101878
2017-06-01T09:33:04.224Z,101876
2017-06-01T09:35:34.295Z,101871
2017-06-01T09:38:03.649Z,101876
2017-06-01T09:40:32.855Z,101877
2017-06-01T09:43:02.176Z,101880
2017-06-01T09:45:31.382Z,101878
2017-06-01T09:48:00.798Z,101891
2017-06-01T09:50:30.033Z,101884
2017-06-01T09:52:59.397Z,101876
2017-06-01T09:55:28.725Z,101883
2017-06-01T09:57:57.971Z,101877
2017-06-01T10:00:27.712Z,101884
2017-06-01T10:02:57.060Z,101889
2017-06-01T10:05:26.361Z,101887
2017-06-01T10:07:55.618Z,101884
2017-06-01T10:10:24.969Z,101883
2017-06-01T10:12:54.486Z,101883
2017-06-01T10:15:23.766Z,101878
2017-06-01T10:17:53.097Z,101880
2017-06-01T10:20:22.506Z,101886
2017-06-01T10:22:51.797Z,101873
2017-06-01T10:25:21.357Z,101884
2017-06-01T10:27:50.830Z,101877
2017-06-01T10:30:20.152Z,101884
2017-06-01T10:32:52.470Z,101882
2017-06-01T10:35:21.669Z,101879
2017-06-01T10:37:50.969Z,101879
2017-06-01T10:40:20.227Z,101879
2017-06-01T10:42:49.937Z,101876
2017-06-01T10:45:19.155Z,101876
2017-06-01T10:47:48.386Z,101877
2017-06-01T10:50:17.679Z,101877
2017-06-01T10:52:46.953Z,101879
2017-06-01T10:55:16.409Z,101877
2017-06-01T10:57:45.809Z,101876
2017-06-01T11:00:15.075Z,101872
2017-06-01T11:02:44.350Z,101876
2017-06-01T11:05:13.651Z,101871
2017-06-01T11:07:43.365Z,101865
2017-06-01T11:10:12.604Z,101870
2017-06-01T11:12:41.776Z,101861
2017-06-01T11:15:11.259Z,101856
2017-06-01T11:17:40.461Z,101857
2017-06-01T11:20:09.864Z,101865
2017-06-01T11:22:39.353Z,101851
2017-06-01T11:25:09.301Z,101852
2017-06-01T11:27:39.189Z,101864
2017-06-01T11:30:08.891Z,101851
2017-06-01T11:32:38.434Z,101849
2017-06-01T11:35:07.681Z,101842
2017-06-01T11:37:37.022Z,101849
2017-06-01T11:40:06.378Z,101849
2017-06-01T11:42:35.656Z,101853
2017-06-01T11:45:06.150Z,101844
2017-06-01T11:47:35.376Z,101847
2017-06-01T11:50:04.937Z,101843
2017-06-01T11:52:34.848Z,101852
2017-06-01T11:55:04.770Z,101847
2017-06-01T11:57:33.955Z,101856
2017-06-01T12:00:03.228Z,101844
2017-06-01T12:02:32.478Z,101841
2017-06-01T12:05:01.794Z,101847
2017-06-01T12:07:31.158Z,101834
2017-06-01T12:10:01.408Z,101841
2017-06-01T12:12:30.638Z,101843
2017-06-01T12:15:03.425Z,101839
2017-06-01T12:17:36.623Z,101839
2017-06-01T12:20:05.893Z,101842
2017-06-01T12:22:35.258Z,101839
2017-06-01T12:25:04.577Z,101841
2017-06-01T12:27:35.529Z,101836
2017-06-01T12:30:08.202Z,101836
2017-06-01T12:32:38.297Z,101833
2017-06-01T12:35:07.516Z,101835
2017-06-01T12:37:37.027Z,101840
2017-06-01T12:40:06.248Z,101836
2017-06-01T12:42:35.887Z,101829
2017-06-01T12:45:05.822Z,101821
2017-06-01T12:47:36.285Z,101817
2017-06-01T12:50:07.589Z,101823
2017-06-01T12:52:36.978Z,101816
2017-06-01T12:55:06.400Z,101809
2017-06-01T12:57:36.046Z,101814
2017-06-01T13:00:31.387Z,101648
2017-06-01T13:03:01.665Z,101819
2017-06-01T13:05:31.039Z,101814
2017-06-01T13:08:01.323Z,101814
2017-06-01T13:10:31.021Z,101821
2017-06-01T13:13:01.305Z,101823
2017-06-01T13:15:36.408Z,101822
2017-06-01T13:20:46.025Z,101799
2017-06-01T13:23:15.995Z,101808
2017-06-01T13:25:45.495Z,101811
2017-06-01T13:28:14.779Z,101795
2017-06-01T13:30:43.997Z,101800
2017-06-01T13:33:13.203Z,101805
2017-06-01T13:35:42.579Z,101795
2017-06-01T13:38:11.974Z,101799
2017-06-01T13:40:41.185Z,101802
2017-06-01T13:43:10.898Z,101791
2017-06-01T13:45:40.175Z,101795
2017-06-01T13:48:09.455Z,101789
2017-06-01T13:50:38.780Z,101788
2017-06-01T13:53:07.970Z,101785
2017-06-01T13:55:37.191Z,101777
2017-06-01T13:58:06.397Z,101781
2017-06-01T14:00:35.641Z,101781
2017-06-01T14:03:04.894Z,101783
2017-06-01T14:05:34.365Z,101782
2017-06-01T14:08:04.405Z,101775
2017-06-01T14:10:33.658Z,101771
2017-06-01T14:13:02.881Z,101777
2017-06-01T14:15:32.460Z,101760
2017-06-01T14:18:01.663Z,101763
2017-06-01T14:20:30.877Z,101758
2017-06-01T14:23:00.737Z,101758
2017-06-01T14:25:30.500Z,101758
2017-06-01T14:28:00.465Z,101749
2017-06-01T14:30:29.650Z,101763
2017-06-01T14:32:58.842Z,101750
2017-06-01T14:35:28.045Z,101752
2017-06-01T14:37:57.257Z,101750
2017-06-01T14:40:26.482Z,101750
2017-06-01T14:42:55.693Z,101738
2017-06-01T14:45:25.074Z,101749
2017-06-01T14:47:54.768Z,101739
2017-06-01T14:50:24.013Z,101735
2017-06-01T14:52:53.213Z,101733
2017-06-01T14:55:22.433Z,101727
2017-06-01T14:57:51.676Z,101723
2017-06-01T15:00:21.379Z,101725
2017-06-01T15:02:51.704Z,101722
2017-06-01T15:05:21.542Z,101720
2017-06-01T15:07:50.737Z,101720
2017-06-01T15:10:20.036Z,101710
2017-06-01T15:12:50.230Z,101695
2017-06-01T15:15:19.466Z,101711
2017-06-01T15:17:48.647Z,101707
2017-06-01T15:20:17.883Z,101700
2017-06-01T15:22:47.150Z,101696
2017-06-01T15:25:16.522Z,101695
2017-06-01T15:27:45.828Z,101685
2017-06-01T15:30:15.029Z,101688
2017-06-01T15:32:44.289Z,101684
2017-06-01T15:35:14.473Z,101685
2017-06-01T15:37:43.752Z,101689
2017-06-01T15:40:12.975Z,101687
2017-06-01T15:42:42.253Z,101684
2017-06-01T15:45:11.561Z,101681
2017-06-01T15:47:40.778Z,101684
2017-06-01T15:50:10.452Z,101679
2017-06-01T15:52:39.726Z,101680
2017-06-01T15:55:08.983Z,101683
2017-06-01T15:57:38.765Z,101685
2017-06-01T16:00:07.988Z,101693
2017-06-01T16:02:37.758Z,101683
2017-06-01T16:05:07.131Z,101681
2017-06-01T16:07:36.558Z,101682
2017-06-01T16:10:06.223Z,101681
2017-06-01T16:12:35.430Z,101678
2017-06-01T16:15:05.445Z,101673
2017-06-01T16:17:34.661Z,101682
2017-06-01T16:20:04.283Z,101672
2017-06-01T16:22:34.057Z,101668
2017-06-01T16:25:03.494Z,101676
2017-06-01T16:27:33.070Z,101673
2017-06-01T16:30:02.350Z,101671
2017-06-01T16:32:32.092Z,101668
2017-06-01T16:35:01.488Z,101660
2017-06-01T16:37:31.075Z,101666
2017-06-01T16:40:00.749Z,101659
2017-06-01T16:42:30.049Z,101655
2017-06-01T16:44:59.357Z,101661
2017-06-01T16:47:29.099Z,101655
2017-06-01T16:49:59.066Z,101649
2017-06-01T16:52:28.538Z,101660
2017-06-01T16:54:57.859Z,101658
2017-06-01T16:57:27.358Z,101663
2017-06-01T16:59:56.663Z,101651
2017-06-01T17:02:26.355Z,101656
2017-06-01T17:04:56.114Z,101658
2017-06-01T17:07:25.366Z,101655
2017-06-01T17:09:54.697Z,101656
2017-06-01T17:12:23.975Z,101646
2017-06-01T17:14:53.297Z,101660
2017-06-01T17:17:22.497Z,101657
2017-06-01T17:19:51.874Z,101655
2017-06-01T17:22:21.395Z,101650
2017-06-01T17:24:50.605Z,101648
2017-06-01T17:27:20.247Z,101660
2017-06-01T17:29:50.105Z,101651
2017-06-01T17:32:19.305Z,101653
2017-06-01T17:34:48.579Z,101649
2017-06-01T17:37:17.801Z,101640
2017-06-01T17:39:47.017Z,101649
2017-06-01T17:42:16.257Z,101647
2017-06-01T17:44:45.984Z,101643
2017-06-01T17:47:15.245Z,101648
2017-06-01T17:49:44.532Z,101635
2017-06-01T17:52:15.521Z,101641
2017-06-01T17:54:44.805Z,101637
2017-06-01T17:57:14.629Z,101632
2017-06-01T17:59:44.400Z,101627
2017-06-01T18:02:13.886Z,101631
2017-06-01T18:04:43.176Z,101615
2017-06-01T18:07:12.505Z,101618
2017-06-01T18:09:41.983Z,101626
2017-06-01T18:12:11.326Z,101622
2017-06-01T18:14:40.905Z,101617
2017-06-01T18:17:10.329Z,101621
2017-06-01T18:19:40.232Z,101616
2017-06-01T18:22:09.581Z,101616
2017-06-01T18:37:25.998Z,101615
2017-06-01T18:39:55.326Z,101604
2017-06-01T18:42:24.672Z,101604
2017-06-01T18:44:54.385Z,101609
2017-06-01T18:47:23.714Z,101615
2017-06-01T18:49:53.037Z,101617
2017-06-01T18:52:22.509Z,101612
2017-06-01T18:54:51.739Z,101624
2017-06-01T18:57:21.110Z,101608
2017-06-01T18:59:50.537Z,101621
2017-06-01T19:02:20.043Z,101617
2017-06-01T19:04:49.571Z,101621
2017-06-01T19:07:19.276Z,101623
2017-06-01T19:09:48.791Z,101620
2017-06-01T19:12:18.109Z,101626
2017-06-01T19:14:47.579Z,101592
2017-06-01T19:17:16.886Z,101623
2017-06-01T19:19:46.218Z,101620
2017-06-01T19:22:15.413Z,101613
2017-06-01T19:24:44.717Z,101620
2017-06-01T19:27:13.954Z,101621
2017-06-01T19:29:43.395Z,101618
2017-06-01T19:32:12.612Z,101622
2017-06-01T19:34:42.190Z,101624
2017-06-01T19:37:11.431Z,101630
2017-06-01T19:39:40.829Z,101613
2017-06-01T19:42:10.112Z,101627
2017-06-01T19:44:39.401Z,101615
2017-06-01T19:47:08.694Z,101616
2017-06-01T19:49:38.035Z,101622
2017-06-01T19:52:07.353Z,101618
2017-06-01T19:54:37.034Z,101606
2017-06-01T19:57:06.276Z,101622
2017-06-01T19:59:35.477Z,101621
2017-06-01T20:02:05.177Z,101624
2017-06-01T20:04:34.459Z,101616
2017-06-01T20:07:03.687Z,101619
2017-06-01T20:09:34.905Z,101625
2017-06-01T20:12:04.414Z,101627
2017-06-01T20:14:33.724Z,101619
2017-06-01T20:17:02.917Z,101631
2017-06-01T20:19:32.289Z,101609
2017-06-01T20:22:01.498Z,101624
2017-06-01T20:24:31.326Z,101630
2017-06-01T20:27:00.596Z,101625
2017-06-01T20:29:29.890Z,101632
2017-06-01T20:31:59.233Z,101623
2017-06-01T20:34:28.594Z,101622
2017-06-01T20:36:58.041Z,101628
2017-06-01T20:39:27.247Z,101631
2017-06-01T20:41:56.497Z,101634
2017-06-01T20:44:26.153Z,101639
2017-06-01T20:46:55.437Z,101618
2017-06-01T20:49:24.678Z,101623
2017-06-01T20:51:53.918Z,101622
2017-06-01T20:54:23.245Z,101627
2017-06-01T20:56:52.554Z,101640
2017-06-01T20:59:21.889Z,101623
2017-06-01T21:01:51.137Z,101631
2017-06-01T21:04:20.538Z,101622
2017-06-01T21:06:49.897Z,101618
2017-06-01T21:09:19.157Z,101621
2017-06-01T21:11:48.710Z,101613
2017-06-01T21:14:18.587Z,101627
2017-06-01T21:16:47.756Z,101621
2017-06-01T21:19:16.981Z,101622
2017-06-01T21:21:47.133Z,101618
2017-06-01T21:24:16.866Z,101622
2017-06-01T21:26:46.506Z,101629
2017-06-01T21:29:16.034Z,101621
2017-06-01T21:31:45.517Z,101619
2017-06-01T21:34:14.842Z,101618
2017-06-01T21:36:44.151Z,101621
2017-06-01T21:39:13.393Z,101621
2017-06-01T21:41:42.709Z,101609
2017-06-01T21:44:11.917Z,101605
2017-06-01T21:46:41.129Z,101600
2017-06-01T21:49:10.655Z,101605
2017-06-01T21:51:39.921Z,101605
2017-06-01T21:54:09.406Z,101602
2017-06-01T21:56:38.762Z,101603
2017-06-01T21:59:07.977Z,101607
2017-06-01T22:01:37.209Z,101606
2017-06-01T22:04:06.450Z,101600
2017-06-01T22:06:35.762Z,101596
2017-06-01T22:09:05.136Z,101578
2017-06-01T22:11:34.558Z,101595
2017-06-01T22:14:03.774Z,101594
2017-06-01T22:16:32.990Z,101583
2017-06-01T22:19:03.612Z,101584
2017-06-01T22:21:32.940Z,101584
2017-06-01T22:24:02.101Z,101581
2017-06-01T22:26:31.380Z,101589
2017-06-01T22:29:00.692Z,101578
2017-06-01T22:31:30.112Z,101577
2017-06-01T22:33:59.273Z,101577
2017-06-01T22:36:28.544Z,101569
2017-06-01T22:38:57.732Z,101566
2017-06-01T22:41:27.389Z,101573
2017-06-01T22:43:56.590Z,101561
2017-06-01T22:46:25.813Z,101562
2017-06-01T22:48:54.985Z,101557
2017-06-01T22:51:24.189Z,101565
2017-06-01T22:53:53.500Z,101565
2017-06-01T22:56:22.700Z,101555
2017-06-01T22:58:51.891Z,101549
2017-06-01T23:01:21.365Z,101576
2017-06-01T23:03:50.636Z,101552
2017-06-01T23:06:19.800Z,101550
2017-06-01T23:08:48.981Z,101552
2017-06-01T23:11:18.156Z,101556
2017-06-01T23:13:47.328Z,101555
2017-06-01T23:16:15.752Z,101547
2017-06-01T23:18:45.362Z,101550
2017-06-01T23:21:15.224Z,101555
2017-06-01T23:23:44.399Z,101556
2017-06-01T23:26:13.622Z,101550
2017-06-01T23:28:43.099Z,101540
2017-06-01T23:31:12.295Z,101540
2017-06-01T23:33:41.486Z,101541
2017-06-01T23:36:10.686Z,101545
2017-06-01T23:38:40.317Z,101533
2017-06-01T23:41:09.818Z,101532
2017-06-01T23:43:39.125Z,101534
2017-06-01T23:46:08.326Z,101530
2017-06-01T23:48:37.517Z,101530
2017-06-01T23:51:06.734Z,101519
2017-06-01T23:53:36.138Z,101529
2017-06-01T23:56:05.439Z,101526
2017-06-01T23:58:34.778Z,101524
